createdAt,value
2023-02-13T00:01:09.582Z,4.49
2023-02-13T00:03:37.533Z,4.48
2023-02-13T00:06:05.257Z,4.47
2023-02-13T00:08:33.134Z,4.48
2023-02-13T00:11:01.161Z,4.48
2023-02-13T00:13:29.060Z,4.47
2023-02-13T00:16:04.250Z,4.47
2023-02-13T00:18:37.220Z,4.46
2023-02-13T00:21:09.851Z,4.47
2023-02-13T00:23:39.778Z,4.47
2023-02-13T00:26:13.564Z,4.48
2023-02-13T00:28:46.070Z,4.49
2023-02-13T00:31:18.328Z,4.52
2023-02-13T00:33:46.502Z,4.52
2023-02-13T00:36:24.918Z,4.52
2023-02-13T00:38:55.034Z,4.47
2023-02-13T00:41:23.756Z,4.42
2023-02-13T00:43:52.549Z,4.43
2023-02-13T00:46:20.150Z,4.39
2023-02-13T00:48:48.206Z,4.41
2023-02-13T00:51:15.912Z,4.40
2023-02-13T00:53:43.716Z,4.41
2023-02-13T00:56:11.603Z,4.41
2023-02-13T00:58:39.675Z,4.41
2023-02-13T01:01:07.390Z,4.39
2023-02-13T01:03:35.869Z,4.39
2023-02-13T01:06:03.568Z,4.38
2023-02-13T01:08:32.681Z,4.39
2023-02-13T01:11:00.484Z,4.36
2023-02-13T01:13:28.511Z,4.36
2023-02-13T01:15:56.830Z,4.33
2023-02-13T01:18:24.819Z,4.29
2023-02-13T01:21:06.372Z,4.30
2023-02-13T01:23:37.798Z,4.33
2023-02-13T01:26:07.803Z,4.31
2023-02-13T01:28:36.152Z,4.31
2023-02-13T01:31:05.423Z,4.29
2023-02-13T01:33:33.432Z,4.26
2023-02-13T01:36:10.520Z,4.28
2023-02-13T01:38:39.523Z,4.27
2023-02-13T01:41:08.178Z,4.30
2023-02-13T01:43:53.928Z,4.29
2023-02-13T01:46:40.640Z,4.31
2023-02-13T01:49:20.870Z,4.29
2023-02-13T01:51:52.449Z,4.30
2023-02-13T01:54:31.140Z,4.30
2023-02-13T01:57:14.994Z,4.28
2023-02-13T01:59:59.735Z,4.28
2023-02-13T02:02:31.688Z,4.30
2023-02-13T02:05:04.197Z,4.31
2023-02-13T02:07:33.200Z,4.32
2023-02-13T02:10:16.806Z,4.32
2023-02-13T02:13:00.834Z,4.29
2023-02-13T02:15:29.979Z,4.24
2023-02-13T02:17:58.460Z,4.23
2023-02-13T02:21:10.215Z,4.22
2023-02-13T02:24:21.309Z,4.17
2023-02-13T02:27:10.433Z,4.11
2023-02-13T02:29:49.915Z,4.11
2023-02-13T02:32:29.252Z,4.09
2023-02-13T02:35:18.825Z,4.07
2023-02-13T02:38:08.320Z,4.07
2023-02-13T02:40:55.771Z,4.06
2023-02-13T02:44:00.220Z,4.08
2023-02-13T02:46:38.239Z,4.08
2023-02-13T02:49:35.818Z,4.08
2023-02-13T02:52:19.648Z,4.10
2023-02-13T02:55:32.565Z,4.08
2023-02-13T02:58:40.755Z,4.10
2023-02-13T03:01:33.080Z,4.05
2023-02-13T03:04:22.258Z,4.05
2023-02-13T03:06:59.703Z,4.05
2023-02-13T03:10:02.063Z,4.03
2023-02-13T03:13:16.945Z,3.99
2023-02-13T03:16:05.123Z,3.95
2023-02-13T03:18:58.546Z,3.96
2023-02-13T03:22:16.167Z,3.99
2023-02-13T03:24:49.185Z,3.96
2023-02-13T03:28:17.882Z,4.00
2023-02-13T03:31:10.560Z,3.99
2023-02-13T03:33:49.523Z,3.98
2023-02-13T03:36:44.938Z,3.97
2023-02-13T03:39:39.568Z,3.96
2023-02-13T03:42:35.660Z,3.96
2023-02-13T03:45:32.744Z,3.96
2023-02-13T03:48:09.966Z,3.95
2023-02-13T03:50:43.433Z,3.96
2023-02-13T03:53:15.018Z,3.98
2023-02-13T03:56:05.739Z,3.95
2023-02-13T03:59:02.521Z,3.91
2023-02-13T04:01:34.715Z,3.87
2023-02-13T04:04:39.719Z,3.94
2023-02-13T04:07:29.560Z,3.98
2023-02-13T04:10:04.564Z,4.02
2023-02-13T04:12:53.455Z,4.03
2023-02-13T04:16:18.543Z,4.05
2023-02-13T04:18:46.837Z,4.03
2023-02-13T04:21:14.807Z,4.02
2023-02-13T04:23:42.384Z,4.02
2023-02-13T04:26:20.645Z,4.01
2023-02-13T04:28:48.141Z,4.04
2023-02-13T04:31:16.368Z,4.06
2023-02-13T04:33:43.906Z,4.02
2023-02-13T04:36:11.994Z,4.02
2023-02-13T04:38:39.571Z,4.04
2023-02-13T04:41:07.453Z,4.05
2023-02-13T04:43:34.893Z,4.06
2023-02-13T04:46:03.785Z,4.05
2023-02-13T04:48:31.700Z,4.03
2023-02-13T04:50:59.782Z,4.02
2023-02-13T04:53:27.463Z,4.04
2023-02-13T04:55:55.332Z,4.03
2023-02-13T04:58:23.042Z,4.06
2023-02-13T05:00:50.905Z,4.11
2023-02-13T05:03:18.728Z,4.15
2023-02-13T05:05:46.665Z,4.13
2023-02-13T05:08:14.185Z,4.11
2023-02-13T05:10:42.054Z,4.09
2023-02-13T05:13:09.720Z,4.10
2023-02-13T05:15:37.552Z,4.07
2023-02-13T05:18:05.196Z,4.08
2023-02-13T05:20:33.144Z,4.10
2023-02-13T05:23:19.344Z,4.07
2023-02-13T05:25:47.236Z,4.09
2023-02-13T05:28:34.023Z,4.11
2023-02-13T05:31:02.256Z,4.04
2023-02-13T05:33:30.112Z,4.02
2023-02-13T05:35:57.896Z,4.01
2023-02-13T05:38:25.485Z,3.98
2023-02-13T05:40:53.374Z,3.93
2023-02-13T05:43:20.923Z,3.89
2023-02-13T05:45:48.822Z,3.86
2023-02-13T05:48:16.415Z,3.84
2023-02-13T05:50:46.885Z,3.81
2023-02-13T05:53:14.413Z,3.75
2023-02-13T05:55:42.241Z,3.73
2023-02-13T05:58:09.798Z,3.70
2023-02-13T06:00:37.762Z,3.69
2023-02-13T06:03:05.244Z,3.66
2023-02-13T06:05:33.153Z,3.65
2023-02-13T06:08:00.616Z,3.62
2023-02-13T06:10:28.549Z,3.63
2023-02-13T06:12:55.988Z,3.62
2023-02-13T06:15:23.848Z,3.61
2023-02-13T06:17:51.270Z,3.60
2023-02-13T06:20:19.311Z,3.59
2023-02-13T06:22:53.744Z,3.59
2023-02-13T06:25:21.887Z,3.61
2023-02-13T06:27:49.446Z,3.60
2023-02-13T06:30:18.644Z,3.60
2023-02-13T06:32:49.095Z,3.62
2023-02-13T06:35:17.156Z,3.62
2023-02-13T06:37:44.832Z,3.66
2023-02-13T06:40:14.950Z,3.65
2023-02-13T06:42:43.933Z,3.64
2023-02-13T06:45:13.100Z,3.65
2023-02-13T06:47:45.810Z,3.71
2023-02-13T06:50:15.969Z,3.77
2023-02-13T06:52:51.396Z,3.86
2023-02-13T06:55:20.845Z,3.92
2023-02-13T06:57:48.547Z,3.97
2023-02-13T07:00:18.279Z,4.03
2023-02-13T07:02:47.313Z,4.11
2023-02-13T07:05:15.862Z,4.17
2023-02-13T07:07:44.227Z,4.23
2023-02-13T07:10:13.955Z,4.29
2023-02-13T07:12:41.587Z,4.37
2023-02-13T07:15:09.919Z,4.39
2023-02-13T07:17:37.796Z,4.44
2023-02-13T07:20:07.781Z,4.52
2023-02-13T07:22:35.720Z,4.57
2023-02-13T07:25:03.909Z,4.63
2023-02-13T07:27:31.575Z,4.66
2023-02-13T07:29:59.307Z,4.72
2023-02-13T07:32:26.768Z,4.77
2023-02-13T07:35:01.543Z,4.83
2023-02-13T07:37:30.963Z,4.91
2023-02-13T07:39:58.766Z,4.99
2023-02-13T07:42:26.260Z,5.09
2023-02-13T07:44:54.194Z,5.17
2023-02-13T07:47:21.639Z,5.25
2023-02-13T07:49:49.509Z,5.35
2023-02-13T07:52:16.966Z,5.49
2023-02-13T07:54:47.920Z,5.62
2023-02-13T07:57:18.351Z,5.71
2023-02-13T07:59:46.103Z,5.80
2023-02-13T08:02:14.892Z,5.85
2023-02-13T08:04:49.179Z,5.90
2023-02-13T08:07:18.583Z,5.95
2023-02-13T08:10:05.556Z,5.99
2023-02-13T08:12:35.441Z,6.01
2023-02-13T08:15:04.439Z,6.03
2023-02-13T08:17:31.931Z,6.01
2023-02-13T08:19:59.755Z,5.97
2023-02-13T08:22:27.429Z,5.97
2023-02-13T08:24:55.128Z,5.96
2023-02-13T08:27:23.172Z,5.98
2023-02-13T08:29:54.078Z,6.00
2023-02-13T08:32:22.433Z,6.02
2023-02-13T08:34:50.370Z,6.07
2023-02-13T08:37:18.381Z,6.10
2023-02-13T08:39:46.136Z,6.35
2023-02-13T08:42:15.895Z,6.70
2023-02-13T08:44:45.089Z,6.83
2023-02-13T08:47:12.706Z,6.83
2023-02-13T08:49:40.602Z,6.83
2023-02-13T08:52:08.066Z,6.83
2023-02-13T08:54:36.517Z,6.84
2023-02-13T08:57:04.606Z,6.83
2023-02-13T08:59:32.408Z,6.84
2023-02-13T09:01:59.871Z,6.86
2023-02-13T09:04:28.244Z,6.88
2023-02-13T09:06:56.589Z,6.89
2023-02-13T09:09:24.501Z,6.88
2023-02-13T09:11:52.536Z,6.91
2023-02-13T09:14:20.298Z,6.97
2023-02-13T09:16:47.775Z,7.02
2023-02-13T09:19:15.967Z,7.08
2023-02-13T09:21:43.429Z,7.11
2023-02-13T09:24:11.721Z,7.21
2023-02-13T09:26:39.100Z,7.29
2023-02-13T09:29:06.847Z,7.38
2023-02-13T09:31:34.357Z,7.44
2023-02-13T09:34:02.150Z,7.51
2023-02-13T09:36:29.659Z,7.59
2023-02-13T09:38:58.191Z,7.63
2023-02-13T09:41:28.958Z,7.63
2023-02-13T09:44:34.969Z,7.67
2023-02-13T09:47:15.010Z,7.77
2023-02-13T09:49:54.360Z,7.81
2023-02-13T09:52:22.013Z,7.90
2023-02-13T09:54:49.720Z,7.95
2023-02-13T09:57:29.033Z,8.05
2023-02-13T10:00:21.594Z,8.09
2023-02-13T10:02:56.632Z,8.07
2023-02-13T10:05:39.204Z,8.10
2023-02-13T10:08:12.951Z,8.16
2023-02-13T10:11:17.029Z,8.23
2023-02-13T10:14:23.425Z,8.32
2023-02-13T10:17:02.282Z,8.41
2023-02-13T10:19:44.322Z,8.47
2023-02-13T10:22:21.767Z,8.55
2023-02-13T10:25:12.774Z,8.63
2023-02-13T10:27:58.746Z,8.71
2023-02-13T10:30:41.648Z,8.80
2023-02-13T10:33:26.758Z,8.87
2023-02-13T10:36:19.374Z,8.93
2023-02-13T10:39:01.824Z,8.93
2023-02-13T10:42:12.607Z,8.98
2023-02-13T10:45:13.606Z,8.94
2023-02-13T10:48:06.494Z,8.93
2023-02-13T10:50:48.894Z,9.03
2023-02-13T10:53:40.686Z,9.11
2023-02-13T10:56:43.982Z,9.14
2023-02-13T10:59:38.721Z,9.22
2023-02-13T11:02:21.729Z,9.31
2023-02-13T11:04:58.985Z,9.40
2023-02-13T11:07:28.909Z,9.47
2023-02-13T11:10:05.995Z,9.53
2023-02-13T11:12:35.425Z,9.62
2023-02-13T11:15:07.286Z,9.73
2023-02-13T11:17:40.323Z,9.84
2023-02-13T11:20:40.266Z,9.95
2023-02-13T11:23:31.083Z,10.04
2023-02-13T11:26:15.790Z,10.14
2023-02-13T11:29:23.416Z,10.27
2023-02-13T11:32:17.181Z,10.37
2023-02-13T11:34:45.990Z,10.43
2023-02-13T11:37:13.283Z,10.52
2023-02-13T11:39:43.111Z,10.67
2023-02-13T11:42:30.658Z,10.73
2023-02-13T11:45:24.486Z,10.72
2023-02-13T11:47:54.260Z,10.76
2023-02-13T11:50:36.266Z,10.87
2023-02-13T11:53:21.523Z,11.01
2023-02-13T11:56:18.774Z,11.16
2023-02-13T11:58:46.322Z,11.29
2023-02-13T12:01:20.329Z,11.42
2023-02-13T12:04:16.595Z,11.51
2023-02-13T12:07:42.592Z,11.56
2023-02-13T12:10:17.358Z,11.73
2023-02-13T12:13:09.545Z,11.86
2023-02-13T12:15:37.868Z,11.75
2023-02-13T12:18:32.095Z,11.67
2023-02-13T12:21:17.143Z,11.66
2023-02-13T12:24:26.427Z,11.86
2023-02-13T12:27:20.178Z,12.07
2023-02-13T12:36:28.636Z,12.39
2023-02-13T12:39:23.131Z,12.49
2023-02-13T12:42:36.791Z,12.68
2023-02-13T12:45:34.152Z,12.82
2023-02-13T12:48:49.638Z,12.55
2023-02-13T12:51:58.874Z,12.56
2023-02-13T12:55:05.519Z,12.68
2023-02-13T13:04:57.817Z,13.31
2023-02-13T13:07:38.352Z,13.20
2023-02-13T13:10:43.532Z,13.20
2023-02-13T13:13:43.332Z,13.49
2023-02-13T13:16:25.306Z,13.69
2023-02-13T13:19:07.598Z,13.68
2023-02-13T13:22:15.061Z,13.93
2023-02-13T13:24:54.198Z,14.07
2023-02-13T13:27:38.917Z,13.95
2023-02-13T13:30:28.917Z,13.84
2023-02-13T13:33:20.396Z,13.94
2023-02-13T13:36:43.889Z,13.88
2023-02-13T13:39:48.217Z,13.74
2023-02-13T13:43:05.561Z,13.66
2023-02-13T13:46:21.688Z,13.48
2023-02-13T13:49:15.308Z,13.22
2023-02-13T13:51:42.908Z,12.99
2023-02-13T13:54:10.651Z,12.79
2023-02-13T13:56:53.312Z,12.62
2023-02-13T13:59:51.660Z,12.51
2023-02-13T14:02:27.137Z,12.46
2023-02-13T14:05:04.072Z,12.52
2023-02-13T14:07:43.949Z,12.34
2023-02-13T14:10:27.021Z,12.20
2023-02-13T14:12:57.346Z,12.09
2023-02-13T14:15:44.756Z,11.98
2023-02-13T14:18:15.003Z,11.87
2023-02-13T14:20:59.524Z,11.75
2023-02-13T14:23:36.138Z,11.56
2023-02-13T14:26:15.337Z,11.42
2023-02-13T14:28:49.455Z,11.32
2023-02-13T14:31:29.721Z,11.22
2023-02-13T14:34:15.261Z,11.34
2023-02-13T14:36:47.642Z,11.71
2023-02-13T14:39:36.053Z,12.22
2023-02-13T14:42:31.404Z,12.66
2023-02-13T14:45:01.983Z,12.97
2023-02-13T14:47:42.992Z,13.05
2023-02-13T14:50:48.795Z,12.81
2023-02-13T14:53:32.065Z,12.65
2023-02-13T14:56:12.086Z,12.71
2023-02-13T14:58:59.265Z,12.88
2023-02-13T15:01:52.871Z,13.21
2023-02-13T15:04:44.622Z,13.61
2023-02-13T15:07:23.927Z,13.91
2023-02-13T15:10:42.777Z,14.11
2023-02-13T15:13:29.269Z,13.99
2023-02-13T15:16:04.844Z,13.77
2023-02-13T15:18:48.913Z,13.46
2023-02-13T15:21:21.824Z,13.17
2023-02-13T15:23:57.347Z,12.80
2023-02-13T15:26:29.320Z,12.48
2023-02-13T15:29:27.819Z,12.11
2023-02-13T15:31:58.367Z,11.76
2023-02-13T15:34:36.212Z,11.49
2023-02-13T15:37:04.274Z,11.29
2023-02-13T15:39:34.098Z,11.10
2023-02-13T15:42:03.670Z,10.94
2023-02-13T15:44:38.244Z,10.77
2023-02-13T15:47:15.779Z,10.58
2023-02-13T15:49:47.159Z,10.44
2023-02-13T15:52:37.617Z,10.30
2023-02-13T15:55:05.733Z,10.18
2023-02-13T15:57:34.055Z,10.09
2023-02-13T16:00:03.108Z,10.01
2023-02-13T16:02:49.781Z,9.97
2023-02-13T16:05:26.508Z,9.91
2023-02-13T16:08:30.747Z,9.83
2023-02-13T16:11:16.840Z,9.78
2023-02-13T16:14:21.436Z,9.68
2023-02-13T16:16:53.189Z,9.60
2023-02-13T16:20:02.208Z,9.56
2023-02-13T16:22:51.383Z,9.51
2023-02-13T16:25:33.180Z,9.41
2023-02-13T16:28:05.877Z,9.31
2023-02-13T16:30:39.922Z,9.23
2023-02-13T16:33:16.245Z,9.16
2023-02-13T16:35:59.722Z,9.11
2023-02-13T16:38:38.358Z,9.07
2023-02-13T16:41:19.529Z,9.06
2023-02-13T16:43:59.899Z,8.98
2023-02-13T16:46:39.654Z,8.91
2023-02-13T16:49:10.206Z,8.88
2023-02-13T16:51:43.709Z,8.85
2023-02-13T16:54:11.236Z,8.85
2023-02-13T16:56:48.177Z,8.83
2023-02-13T16:59:42.404Z,8.80
2023-02-13T17:02:19.302Z,8.77
2023-02-13T17:05:01.673Z,8.73
2023-02-13T17:07:34.598Z,8.70
2023-02-13T17:10:35.166Z,8.68
2023-02-13T17:13:18.248Z,8.65
2023-02-13T17:15:48.619Z,8.62
2023-02-13T17:18:16.556Z,8.58
2023-02-13T17:20:45.440Z,8.57
2023-02-13T17:23:25.718Z,8.59
2023-02-13T17:25:54.061Z,8.53
2023-02-13T17:28:26.525Z,8.49
2023-02-13T17:30:57.456Z,8.49
2023-02-13T17:33:31.788Z,8.50
2023-02-13T17:35:59.356Z,8.48
2023-02-13T17:38:27.680Z,8.47
2023-02-13T17:40:55.471Z,8.43
2023-02-13T17:43:23.444Z,8.38
2023-02-13T17:45:51.224Z,8.33
2023-02-13T17:48:19.499Z,8.30
2023-02-13T17:50:49.986Z,8.21
2023-02-13T17:53:30.648Z,8.14
2023-02-13T17:55:58.875Z,8.06
2023-02-13T17:58:27.141Z,8.03
2023-02-13T18:00:55.288Z,7.98
2023-02-13T18:03:23.063Z,7.99
2023-02-13T18:05:51.213Z,8.01
2023-02-13T18:08:20.256Z,8.02
2023-02-13T18:10:48.449Z,7.99
2023-02-13T18:13:16.216Z,7.96
2023-02-13T18:15:45.658Z,7.91
2023-02-13T18:18:16.207Z,7.91
2023-02-13T18:20:45.136Z,7.87
2023-02-13T18:23:14.042Z,7.88
2023-02-13T18:25:42.067Z,7.89
2023-02-13T18:28:09.743Z,7.86
2023-02-13T18:30:38.067Z,7.83
2023-02-13T18:33:05.790Z,7.79
2023-02-13T18:35:36.142Z,7.78
2023-02-13T18:38:03.948Z,7.77
2023-02-13T18:40:31.776Z,7.78
2023-02-13T18:43:00.551Z,7.77
2023-02-13T18:45:28.399Z,7.78
2023-02-13T18:47:56.107Z,7.78
2023-02-13T18:50:24.962Z,7.73
2023-02-13T18:52:52.581Z,7.71
2023-02-13T18:55:20.332Z,7.68
2023-02-13T18:57:51.579Z,7.70
2023-02-13T19:00:22.331Z,7.66
2023-02-13T19:02:50.139Z,7.66
2023-02-13T19:05:18.414Z,7.62
2023-02-13T19:07:46.761Z,7.59
2023-02-13T19:10:16.094Z,7.56
2023-02-13T19:12:43.682Z,7.55
2023-02-13T19:15:11.708Z,7.55
2023-02-13T19:17:39.419Z,7.48
2023-02-13T19:20:08.514Z,7.46
2023-02-13T19:22:36.089Z,7.46
2023-02-13T19:25:04.219Z,7.42
2023-02-13T19:27:31.716Z,7.41
2023-02-13T19:29:59.740Z,7.41
2023-02-13T19:32:27.307Z,7.39
2023-02-13T19:34:55.278Z,7.40
2023-02-13T19:37:22.937Z,7.41
2023-02-13T19:39:50.898Z,7.41
2023-02-13T19:42:18.502Z,7.45
2023-02-13T19:44:46.333Z,7.44
2023-02-13T19:47:14.356Z,7.48
2023-02-13T19:49:42.349Z,7.40
2023-02-13T19:52:10.925Z,7.37
2023-02-13T19:54:40.180Z,7.33
2023-02-13T19:57:07.889Z,7.34
2023-02-13T19:59:35.931Z,7.38
2023-02-13T20:02:04.058Z,7.41
2023-02-13T20:04:42.174Z,7.43
2023-02-13T20:07:39.341Z,7.44
2023-02-13T20:10:12.467Z,7.44
2023-02-13T20:12:40.349Z,7.43
2023-02-13T20:15:08.804Z,7.40
2023-02-13T20:17:39.950Z,7.42
2023-02-13T20:20:09.965Z,7.37
2023-02-13T20:22:39.832Z,7.35
2023-02-13T20:25:08.412Z,7.28
2023-02-13T20:27:42.588Z,7.24
2023-02-13T20:30:15.673Z,7.23
2023-02-13T20:32:44.378Z,7.21
2023-02-13T20:35:12.651Z,7.23
2023-02-13T20:37:42.108Z,7.24
2023-02-13T20:40:11.391Z,7.20
2023-02-13T20:42:39.147Z,7.14
2023-02-13T20:45:07.987Z,7.07
2023-02-13T20:47:35.675Z,7.05
2023-02-13T20:50:06.983Z,6.92
2023-02-13T20:52:35.940Z,6.86
2023-02-13T20:55:05.461Z,6.87
2023-02-13T20:57:36.993Z,6.90
2023-02-13T21:00:07.496Z,6.85
2023-02-13T21:02:35.322Z,6.81
2023-02-13T21:05:03.694Z,6.79
2023-02-13T21:07:32.010Z,6.73
2023-02-13T21:10:00.021Z,6.76
2023-02-13T21:12:27.664Z,6.71
2023-02-13T21:14:55.571Z,6.72
2023-02-13T21:17:23.449Z,6.72
2023-02-13T21:19:52.839Z,6.70
2023-02-13T21:22:20.993Z,6.69
2023-02-13T21:24:50.981Z,6.72
2023-02-13T21:27:18.389Z,6.76
2023-02-13T21:29:46.626Z,6.71
2023-02-13T21:32:14.420Z,6.66
2023-02-13T21:34:43.369Z,6.64
2023-02-13T21:37:10.913Z,6.63
2023-02-13T21:39:39.651Z,6.63
2023-02-13T21:42:07.346Z,6.64
2023-02-13T21:44:35.574Z,6.65
2023-02-13T21:47:05.477Z,6.64
2023-02-13T21:49:36.994Z,6.61
2023-02-13T21:52:07.332Z,6.62
2023-02-13T21:54:35.434Z,6.62
2023-02-13T21:57:03.102Z,6.64
2023-02-13T21:59:31.082Z,6.63
2023-02-13T22:01:58.887Z,6.65
2023-02-13T22:04:27.018Z,6.73
2023-02-13T22:06:54.664Z,6.81
2023-02-13T22:09:22.854Z,6.84
2023-02-13T22:11:52.965Z,6.80
2023-02-13T22:14:22.438Z,6.83
2023-02-13T22:16:53.042Z,6.90
2023-02-13T22:19:24.425Z,6.96
2023-02-13T22:21:52.084Z,7.02
2023-02-13T22:24:19.937Z,7.03
2023-02-13T22:26:47.552Z,7.10
2023-02-13T22:29:17.853Z,7.15
2023-02-13T22:31:45.892Z,7.20
2023-02-13T22:34:14.745Z,7.14
2023-02-13T22:36:43.964Z,7.09
2023-02-13T22:39:12.865Z,7.11
2023-02-13T22:41:45.204Z,7.15
2023-02-13T22:44:15.456Z,7.09
2023-02-13T22:46:45.600Z,7.10
2023-02-13T22:49:15.361Z,7.02
2023-02-13T22:51:43.675Z,6.97
2023-02-13T22:54:12.027Z,6.95
2023-02-13T22:56:40.893Z,6.93
2023-02-13T22:59:11.326Z,6.92
2023-02-13T23:01:40.001Z,6.91
2023-02-13T23:04:07.969Z,6.93
2023-02-13T23:06:35.729Z,7.01
2023-02-13T23:09:03.807Z,7.04
2023-02-13T23:11:50.194Z,7.09
2023-02-13T23:14:18.170Z,7.08
2023-02-13T23:17:04.496Z,7.04
2023-02-13T23:19:32.549Z,6.90
2023-02-13T23:22:00.841Z,6.88
2023-02-13T23:24:30.265Z,6.88
2023-02-13T23:26:59.305Z,6.87
2023-02-13T23:29:27.507Z,6.88
2023-02-13T23:31:55.097Z,6.90
2023-02-13T23:34:23.257Z,6.90
2023-02-13T23:36:50.810Z,6.91
2023-02-13T23:39:20.800Z,6.92
2023-02-13T23:41:48.399Z,6.86
2023-02-13T23:44:16.297Z,6.74
2023-02-13T23:46:43.948Z,6.51
2023-02-13T23:49:11.831Z,6.41
2023-02-13T23:51:39.356Z,6.32
2023-02-13T23:54:07.170Z,6.33
2023-02-13T23:56:34.721Z,6.22
2023-02-13T23:59:02.545Z,6.10
